sensor_id;sensor_type;location;lat;lon;timestamp;pressure;altitude;pressure_sealevel;temperature;humidity
7105;BME280;3594;42.152;24.714;2024-03-02T00:00:08;-24034.06;;;7.77;nan
7105;BME280;3594;42.152;24.714;2024-03-02T00:02:42;-24033.22;;;7.74;nan
7105;BME280;3594;42.152;24.714;2024-03-02T00:05:11;-24043.84;;;8.12;nan
7105;BME280;3594;42.152;24.714;2024-03-02T00:07:37;-24046.25;;;8.21;nan
7105;BME280;3594;42.152;24.714;2024-03-02T00:10:09;-24043.53;;;8.18;nan
7105;BME280;3594;42.152;24.714;2024-03-02T00:12:38;-24035.03;;;7.87;nan
7105;BME280;3594;42.152;24.714;2024-03-02T00:15:07;-24042.97;;;8.16;nan
7105;BME280;3594;42.152;24.714;2024-03-02T00:17:45;-24040.13;;;8.06;nan
7105;BME280;3594;42.152;24.714;2024-03-02T00:20:15;-24042.41;;;8.14;nan
7105;BME280;3594;42.152;24.714;2024-03-02T00:22:43;-24038.88;;;7.94;nan
7105;BME280;3594;42.152;24.714;2024-03-02T00:25:08;-24041.16;;;8.03;nan
7105;BME280;3594;42.152;24.714;2024-03-02T00:27:35;-24046.41;;;8.21;nan
7105;BME280;3594;42.152;24.714;2024-03-02T00:30:01;-24036.75;;;7.93;nan
7105;BME280;3594;42.152;24.714;2024-03-02T00:32:31;-24034.06;;;7.84;nan
7105;BME280;3594;42.152;24.714;2024-03-02T00:34:58;-24027.09;;;7.59;nan
7105;BME280;3594;42.152;24.714;2024-03-02T00:37:23;-24031.25;;;7.67;nan
7105;BME280;3594;42.152;24.714;2024-03-02T00:39:49;-24036.63;;;7.86;nan
7105;BME280;3594;42.152;24.714;2024-03-02T00:42:14;-24034.06;;;7.77;nan
7105;BME280;3594;42.152;24.714;2024-03-02T00:44:40;-24032.50;;;7.72;nan
7105;BME280;3594;42.152;24.714;2024-03-02T00:47:06;-24032.94;;;7.73;nan
7105;BME280;3594;42.152;24.714;2024-03-02T00:49:32;-24026.00;;;7.48;nan
7105;BME280;3594;42.152;24.714;2024-03-02T00:51:58;-24027.13;;;7.52;nan
7105;BME280;3594;42.152;24.714;2024-03-02T00:54:25;-24030.81;;;7.66;nan
7105;BME280;3594;42.152;24.714;2024-03-02T00:56:52;-24024.88;;;7.44;nan
7105;BME280;3594;42.152;24.714;2024-03-02T00:59:17;-24031.66;;;7.69;nan
7105;BME280;3594;42.152;24.714;2024-03-02T01:01:43;-24033.78;;;7.76;nan
7105;BME280;3594;42.152;24.714;2024-03-02T01:04:09;-24026.13;;;7.49;nan
7105;BME280;3594;42.152;24.714;2024-03-02T01:06:35;-24022.44;;;7.36;nan
7105;BME280;3594;42.152;24.714;2024-03-02T01:09:00;-24026.69;;;7.51;nan
7105;BME280;3594;42.152;24.714;2024-03-02T01:11:26;-24027.28;;;7.53;nan
7105;BME280;3594;42.152;24.714;2024-03-02T01:13:51;-24025.13;;;7.45;nan
7105;BME280;3594;42.152;24.714;2024-03-02T01:16:17;-24021.03;;;7.31;nan
7105;BME280;3594;42.152;24.714;2024-03-02T01:18:43;-24027.56;;;7.54;nan
7105;BME280;3594;42.152;24.714;2024-03-02T01:21:08;-24026.97;;;7.52;nan
7105;BME280;3594;42.152;24.714;2024-03-02T01:23:34;-24020.88;;;7.30;nan
7105;BME280;3594;42.152;24.714;2024-03-02T01:25:59;-24022.16;;;7.35;nan
7105;BME280;3594;42.152;24.714;2024-03-02T01:28:25;-24027.13;;;7.52;nan
7105;BME280;3594;42.152;24.714;2024-03-02T01:30:50;-24024.44;;;7.43;nan
7105;BME280;3594;42.152;24.714;2024-03-02T01:33:17;-24019.91;;;7.27;nan
7105;BME280;3594;42.152;24.714;2024-03-02T01:35:43;-24021.75;;;7.33;nan
7105;BME280;3594;42.152;24.714;2024-03-02T01:38:09;-24027.56;;;7.54;nan
7105;BME280;3594;42.152;24.714;2024-03-02T01:40:35;-24023.59;;;7.40;nan
7105;BME280;3594;42.152;24.714;2024-03-02T01:43:00;-24033.50;;;7.75;nan
7105;BME280;3594;42.152;24.714;2024-03-02T01:45:27;-24032.22;;;7.71;nan
7105;BME280;3594;42.152;24.714;2024-03-02T01:47:53;-24026.41;;;7.50;nan
7105;BME280;3594;42.152;24.714;2024-03-02T01:50:29;-24027.41;;;7.53;nan
7105;BME280;3594;42.152;24.714;2024-03-02T01:52:58;-24012.66;;;7.01;nan
7105;BME280;3594;42.152;24.714;2024-03-02T01:55:24;-24023.88;;;7.41;nan
7105;BME280;3594;42.152;24.714;2024-03-02T01:57:50;-24031.38;;;7.68;nan
7105;BME280;3594;42.152;24.714;2024-03-02T02:00:17;-24023.00;;;7.38;nan
7105;BME280;3594;42.152;24.714;2024-03-02T02:02:44;-24030.53;;;7.65;nan
7105;BME280;3594;42.152;24.714;2024-03-02T02:05:09;-24023.72;;;7.40;nan
7105;BME280;3594;42.152;24.714;2024-03-02T02:07:35;-24005.16;;;6.74;nan
7105;BME280;3594;42.152;24.714;2024-03-02T02:10:01;-24024.44;;;7.43;nan
7105;BME280;3594;42.152;24.714;2024-03-02T02:12:26;-24024.72;;;7.44;nan
7105;BME280;3594;42.152;24.714;2024-03-02T02:14:52;-24027.41;;;7.53;nan
7105;BME280;3594;42.152;24.714;2024-03-02T02:17:17;-24026.41;;;7.50;nan
7105;BME280;3594;42.152;24.714;2024-03-02T02:19:43;-24019.91;;;7.27;nan
7105;BME280;3594;42.152;24.714;2024-03-02T02:22:09;-24030.66;;;7.65;nan
7105;BME280;3594;42.152;24.714;2024-03-02T02:24:35;-24028.13;;;7.56;nan
7105;BME280;3594;42.152;24.714;2024-03-02T02:27:00;-24029.53;;;7.61;nan
7105;BME280;3594;42.152;24.714;2024-03-02T02:29:26;-24033.94;;;7.77;nan
7105;BME280;3594;42.152;24.714;2024-03-02T02:31:52;-24023.44;;;7.39;nan
7105;BME280;3594;42.152;24.714;2024-03-02T02:34:17;-24023.44;;;7.39;nan
7105;BME280;3594;42.152;24.714;2024-03-02T02:36:43;-24026.13;;;7.49;nan
7105;BME280;3594;42.152;24.714;2024-03-02T02:39:11;-24019.19;;;7.24;nan
7105;BME280;3594;42.152;24.714;2024-03-02T02:41:38;-24030.09;;;7.63;nan
7105;BME280;3594;42.152;24.714;2024-03-02T02:44:04;-24028.69;;;7.58;nan
7105;BME280;3594;42.152;24.714;2024-03-02T02:46:30;-24030.94;;;7.66;nan
7105;BME280;3594;42.152;24.714;2024-03-02T02:48:55;-24026.97;;;7.52;nan
7105;BME280;3594;42.152;24.714;2024-03-02T02:51:21;-24022.31;;;7.35;nan
7105;BME280;3594;42.152;24.714;2024-03-02T02:53:46;-24018.47;;;7.22;nan
7105;BME280;3594;42.152;24.714;2024-03-02T02:56:12;-24029.69;;;7.62;nan
7105;BME280;3594;42.152;24.714;2024-03-02T02:58:37;-24025.56;;;7.47;nan
7105;BME280;3594;42.152;24.714;2024-03-02T03:01:03;-24020.88;;;7.30;nan
7105;BME280;3594;42.152;24.714;2024-03-02T03:03:29;-24026.84;;;7.51;nan
7105;BME280;3594;42.152;24.714;2024-03-02T03:05:54;-24028.53;;;7.58;nan
7105;BME280;3594;42.152;24.714;2024-03-02T03:08:20;-24028.13;;;7.56;nan
7105;BME280;3594;42.152;24.714;2024-03-02T03:10:45;-24025.56;;;7.47;nan
7105;BME280;3594;42.152;24.714;2024-03-02T03:13:11;-24031.38;;;7.68;nan
7105;BME280;3594;42.152;24.714;2024-03-02T03:15:36;-24027.69;;;7.54;nan
7105;BME280;3594;42.152;24.714;2024-03-02T03:18:03;-24023.44;;;7.39;nan
7105;BME280;3594;42.152;24.714;2024-03-02T03:20:29;-24028.53;;;7.58;nan
7105;BME280;3594;42.152;24.714;2024-03-02T03:22:55;-24028.69;;;7.58;nan
7105;BME280;3594;42.152;24.714;2024-03-02T03:25:21;-24028.13;;;7.56;nan
7105;BME280;3594;42.152;24.714;2024-03-02T03:27:46;-24029.69;;;7.62;nan
7105;BME280;3594;42.152;24.714;2024-03-02T03:30:12;-24029.69;;;7.62;nan
7105;BME280;3594;42.152;24.714;2024-03-02T03:32:37;-24027.69;;;7.54;nan
7105;BME280;3594;42.152;24.714;2024-03-02T03:35:03;-24027.41;;;7.53;nan
7105;BME280;3594;42.152;24.714;2024-03-02T03:37:29;-24033.06;;;7.74;nan
7105;BME280;3594;42.152;24.714;2024-03-02T03:40:01;-24027.56;;;7.54;nan
7105;BME280;3594;42.152;24.714;2024-03-02T03:42:27;-24020.19;;;7.28;nan
7105;BME280;3594;42.152;24.714;2024-03-02T03:44:52;-24017.78;;;7.19;nan
7105;BME280;3594;42.152;24.714;2024-03-02T03:47:18;-24016.78;;;7.16;nan
7105;BME280;3594;42.152;24.714;2024-03-02T03:49:43;-24026.13;;;7.49;nan
7105;BME280;3594;42.152;24.714;2024-03-02T03:52:09;-24020.47;;;7.29;nan
7105;BME280;3594;42.152;24.714;2024-03-02T03:54:34;-24019.34;;;7.25;nan
7105;BME280;3594;42.152;24.714;2024-03-02T03:57:02;-24026.69;;;7.51;nan
7105;BME280;3594;42.152;24.714;2024-03-02T03:59:27;-24025.72;;;7.47;nan
7105;BME280;3594;42.152;24.714;2024-03-02T04:01:53;-24029.53;;;7.61;nan
7105;BME280;3594;42.152;24.714;2024-03-02T04:04:18;-24026.13;;;7.49;nan
7105;BME280;3594;42.152;24.714;2024-03-02T04:06:44;-24029.25;;;7.60;nan
7105;BME280;3594;42.152;24.714;2024-03-02T04:09:09;-24019.63;;;7.26;nan
7105;BME280;3594;42.152;24.714;2024-03-02T04:11:35;-24029.53;;;7.61;nan
7105;BME280;3594;42.152;24.714;2024-03-02T04:14:00;-24027.84;;;7.55;nan
7105;BME280;3594;42.152;24.714;2024-03-02T04:16:26;-24029.53;;;7.61;nan
7105;BME280;3594;42.152;24.714;2024-03-02T04:18:51;-24028.97;;;7.59;nan
7105;BME280;3594;42.152;24.714;2024-03-02T04:21:17;-24021.59;;;7.33;nan
7105;BME280;3594;42.152;24.714;2024-03-02T04:23:42;-24025.72;;;7.47;nan
7105;BME280;3594;42.152;24.714;2024-03-02T04:26:08;-24032.66;;;7.72;nan
7105;BME280;3594;42.152;24.714;2024-03-02T04:28:33;-24029.69;;;7.62;nan
7105;BME280;3594;42.152;24.714;2024-03-02T04:30:58;-24020.75;;;7.30;nan
7105;BME280;3594;42.152;24.714;2024-03-02T04:33:24;-24025.44;;;7.46;nan
7105;BME280;3594;42.152;24.714;2024-03-02T04:35:49;-24025.00;;;7.45;nan
7105;BME280;3594;42.152;24.714;2024-03-02T04:38:15;-24022.88;;;7.37;nan
7105;BME280;3594;42.152;24.714;2024-03-02T04:40:40;-24025.13;;;7.45;nan
7105;BME280;3594;42.152;24.714;2024-03-02T04:43:05;-24030.09;;;7.63;nan
7105;BME280;3594;42.152;24.714;2024-03-02T04:45:31;-24028.81;;;7.59;nan
7105;BME280;3594;42.152;24.714;2024-03-02T04:47:56;-24025.13;;;7.45;nan
7105;BME280;3594;42.152;24.714;2024-03-02T04:50:22;-24027.13;;;7.52;nan
7105;BME280;3594;42.152;24.714;2024-03-02T04:52:47;-24028.13;;;7.56;nan
7105;BME280;3594;42.152;24.714;2024-03-02T04:55:12;-24023.44;;;7.39;nan
7105;BME280;3594;42.152;24.714;2024-03-02T04:57:41;-24026.13;;;7.49;nan
7105;BME280;3594;42.152;24.714;2024-03-02T05:00:07;-24020.88;;;7.30;nan
7105;BME280;3594;42.152;24.714;2024-03-02T05:02:34;-24021.59;;;7.33;nan
7105;BME280;3594;42.152;24.714;2024-03-02T05:04:59;-24025.56;;;7.47;nan
7105;BME280;3594;42.152;24.714;2024-03-02T05:07:25;-24017.47;;;7.18;nan
7105;BME280;3594;42.152;24.714;2024-03-02T05:09:50;-24019.34;;;7.25;nan
7105;BME280;3594;42.152;24.714;2024-03-02T05:12:15;-24022.59;;;7.36;nan
7105;BME280;3594;42.152;24.714;2024-03-02T05:14:59;-24024.00;;;7.41;nan
7105;BME280;3594;42.152;24.714;2024-03-02T05:17:25;-24023.59;;;7.40;nan
7105;BME280;3594;42.152;24.714;2024-03-02T05:19:50;-24027.97;;;7.55;nan
7105;BME280;3594;42.152;24.714;2024-03-02T05:22:16;-24020.75;;;7.30;nan
7105;BME280;3594;42.152;24.714;2024-03-02T05:24:42;-24021.88;;;7.34;nan
7105;BME280;3594;42.152;24.714;2024-03-02T05:27:07;-24027.84;;;7.55;nan
7105;BME280;3594;42.152;24.714;2024-03-02T05:29:32;-24026.84;;;7.51;nan
7105;BME280;3594;42.152;24.714;2024-03-02T05:31:58;-24025.28;;;7.46;nan
7105;BME280;3594;42.152;24.714;2024-03-02T05:34:23;-24028.41;;;7.57;nan
7105;BME280;3594;42.152;24.714;2024-03-02T05:36:48;-24023.72;;;7.40;nan
7105;BME280;3594;42.152;24.714;2024-03-02T05:39:14;-24023.88;;;7.41;nan
7105;BME280;3594;42.152;24.714;2024-03-02T05:41:39;-24024.72;;;7.44;nan
7105;BME280;3594;42.152;24.714;2024-03-02T05:44:05;-24016.63;;;7.15;nan
7105;BME280;3594;42.152;24.714;2024-03-02T05:46:30;-24027.28;;;7.53;nan
7105;BME280;3594;42.152;24.714;2024-03-02T05:48:55;-24027.56;;;7.54;nan
7105;BME280;3594;42.152;24.714;2024-03-02T05:51:21;-24025.44;;;7.46;nan
7105;BME280;3594;42.152;24.714;2024-03-02T05:53:46;-24026.00;;;7.48;nan
7105;BME280;3594;42.152;24.714;2024-03-02T05:56:12;-24016.22;;;7.14;nan
7105;BME280;3594;42.152;24.714;2024-03-02T05:58:37;-24023.00;;;7.38;nan
7105;BME280;3594;42.152;24.714;2024-03-02T06:01:12;-24025.00;;;7.45;nan
7105;BME280;3594;42.152;24.714;2024-03-02T06:03:37;-24023.00;;;7.38;nan
7105;BME280;3594;42.152;24.714;2024-03-02T06:06:03;-24017.47;;;7.18;nan
7105;BME280;3594;42.152;24.714;2024-03-02T06:08:29;-24029.69;;;7.62;nan
7105;BME280;3594;42.152;24.714;2024-03-02T06:10:54;-24026.56;;;7.50;nan
7105;BME280;3594;42.152;24.714;2024-03-02T06:13:21;-24023.88;;;7.41;nan
7105;BME280;3594;42.152;24.714;2024-03-02T06:15:46;-24016.78;;;7.16;nan
7105;BME280;3594;42.152;24.714;2024-03-02T06:18:12;-24024.72;;;7.44;nan
7105;BME280;3594;42.152;24.714;2024-03-02T06:20:37;-24018.47;;;7.22;nan
7105;BME280;3594;42.152;24.714;2024-03-02T06:23:04;-24027.97;;;7.55;nan
7105;BME280;3594;42.152;24.714;2024-03-02T06:25:29;-24029.41;;;7.61;nan
7105;BME280;3594;42.152;24.714;2024-03-02T06:27:54;-24031.94;;;7.70;nan
7105;BME280;3594;42.152;24.714;2024-03-02T06:30:20;-24019.91;;;7.27;nan
7105;BME280;3594;42.152;24.714;2024-03-02T06:32:45;-24028.25;;;7.57;nan
7105;BME280;3594;42.152;24.714;2024-03-02T06:35:11;-24028.97;;;7.59;nan
7105;BME280;3594;42.152;24.714;2024-03-02T06:37:38;-24026.84;;;7.51;nan
7105;BME280;3594;42.152;24.714;2024-03-02T06:40:06;-24031.53;;;7.68;nan
7105;BME280;3594;42.152;24.714;2024-03-02T06:42:35;-24031.81;;;7.69;nan
7105;BME280;3594;42.152;24.714;2024-03-02T06:45:02;-24016.63;;;7.15;nan
7105;BME280;3594;42.152;24.714;2024-03-02T06:47:27;-24034.06;;;7.77;nan
7105;BME280;3594;42.152;24.714;2024-03-02T06:49:53;-24026.56;;;7.50;nan
7105;BME280;3594;42.152;24.714;2024-03-02T06:52:19;-24036.19;;;7.85;nan
7105;BME280;3594;42.152;24.714;2024-03-02T06:54:45;-24032.50;;;7.72;nan
7105;BME280;3594;42.152;24.714;2024-03-02T06:57:11;-24039.16;;;7.95;nan
7105;BME280;3594;42.152;24.714;2024-03-02T06:59:37;-24039.44;;;7.96;nan
7105;BME280;3594;42.152;24.714;2024-03-02T07:02:02;-24031.81;;;7.69;nan
7105;BME280;3594;42.152;24.714;2024-03-02T07:04:28;-24042.28;;;8.07;nan
7105;BME280;3594;42.152;24.714;2024-03-02T07:06:53;-24013.22;;;7.03;nan
7105;BME280;3594;42.152;24.714;2024-03-02T07:09:20;-24027.56;;;7.54;nan
7105;BME280;3594;42.152;24.714;2024-03-02T07:11:48;-24032.66;;;7.72;nan
7105;BME280;3594;42.152;24.714;2024-03-02T07:14:13;-24034.91;;;7.80;nan
7105;BME280;3594;42.152;24.714;2024-03-02T07:16:39;-24039.03;;;7.95;nan
7105;BME280;3594;42.152;24.714;2024-03-02T07:19:06;-24040.44;;;8.00;nan
7105;BME280;3594;42.152;24.714;2024-03-02T07:21:31;-24042.84;;;8.09;nan
7105;BME280;3594;42.152;24.714;2024-03-02T07:23:58;-24044.69;;;8.15;nan
7105;BME280;3594;42.152;24.714;2024-03-02T07:26:24;-24040.59;;;8.00;nan
7105;BME280;3594;42.152;24.714;2024-03-02T07:28:50;-24039.59;;;7.97;nan
7105;BME280;3594;42.152;24.714;2024-03-02T07:31:16;-24034.34;;;7.78;nan
7105;BME280;3594;42.152;24.714;2024-03-02T07:33:45;-24048.09;;;8.27;nan
7105;BME280;3594;42.152;24.714;2024-03-02T07:36:12;-24040.31;;;7.99;nan
7105;BME280;3594;42.152;24.714;2024-03-02T07:38:37;-24046.25;;;8.21;nan
7105;BME280;3594;42.152;24.714;2024-03-02T07:41:03;-24045.25;;;8.17;nan
7105;BME280;3594;42.152;24.714;2024-03-02T07:43:30;-24048.94;;;8.30;nan
7105;BME280;3594;42.152;24.714;2024-03-02T07:45:57;-24040.72;;;8.01;nan
7105;BME280;3594;42.152;24.714;2024-03-02T07:48:22;-24047.94;;;8.27;nan
7105;BME280;3594;42.152;24.714;2024-03-02T07:50:48;-24037.19;;;7.88;nan
7105;BME280;3594;42.152;24.714;2024-03-02T07:53:13;-24035.78;;;7.83;nan
7105;BME280;3594;42.152;24.714;2024-03-02T07:55:40;-24044.13;;;8.13;nan
7105;BME280;3594;42.152;24.714;2024-03-02T07:58:06;-24044.56;;;8.15;nan
7105;BME280;3594;42.152;24.714;2024-03-02T08:00:32;-24044.56;;;8.15;nan
7105;BME280;3594;42.152;24.714;2024-03-02T08:02:57;-24046.41;;;8.21;nan
7105;BME280;3594;42.152;24.714;2024-03-02T08:05:23;-24046.09;;;8.20;nan
7105;BME280;3594;42.152;24.714;2024-03-02T08:07:48;-24050.66;;;8.36;nan
7105;BME280;3594;42.152;24.714;2024-03-02T08:10:18;-24052.63;;;8.43;nan
7105;BME280;3594;42.152;24.714;2024-03-02T08:12:44;-24053.34;;;8.46;nan
7105;BME280;3594;42.152;24.714;2024-03-02T08:15:09;-24047.09;;;8.24;nan
7105;BME280;3594;42.152;24.714;2024-03-02T08:17:35;-24049.38;;;8.32;nan
7105;BME280;3594;42.152;24.714;2024-03-02T08:20:00;-24043.69;;;8.12;nan
7105;BME280;3594;42.152;24.714;2024-03-02T08:22:25;-24049.78;;;8.33;nan
7105;BME280;3594;42.152;24.714;2024-03-02T08:24:51;-24050.78;;;8.37;nan
7105;BME280;3594;42.152;24.714;2024-03-02T08:27:17;-24050.78;;;8.37;nan
7105;BME280;3594;42.152;24.714;2024-03-02T08:29:42;-24049.09;;;8.31;nan
7105;BME280;3594;42.152;24.714;2024-03-02T08:32:08;-24050.06;;;8.34;nan
7105;BME280;3594;42.152;24.714;2024-03-02T08:34:33;-24053.06;;;8.45;nan
7105;BME280;3594;42.152;24.714;2024-03-02T08:37:04;-24055.31;;;8.53;nan
7105;BME280;3594;42.152;24.714;2024-03-02T08:39:30;-24059.97;;;8.70;nan
7105;BME280;3594;42.152;24.714;2024-03-02T08:41:55;-24051.50;;;8.39;nan
7105;BME280;3594;42.152;24.714;2024-03-02T08:44:21;-24053.06;;;8.45;nan
7105;BME280;3594;42.152;24.714;2024-03-02T08:46:47;-24049.66;;;8.33;nan
7105;BME280;3594;42.152;24.714;2024-03-02T08:49:12;-24044.84;;;8.16;nan
7105;BME280;3594;42.152;24.714;2024-03-02T08:51:38;-24044.97;;;8.16;nan
7105;BME280;3594;42.152;24.714;2024-03-02T08:54:04;-24046.97;;;8.23;nan
7105;BME280;3594;42.152;24.714;2024-03-02T08:56:30;-24046.41;;;8.21;nan
7105;BME280;3594;42.152;24.714;2024-03-02T08:58:56;-24042.28;;;8.07;nan
7105;BME280;3594;42.152;24.714;2024-03-02T09:01:21;-24051.06;;;8.38;nan
7105;BME280;3594;42.152;24.714;2024-03-02T09:03:47;-24043.69;;;8.12;nan
7105;BME280;3594;42.152;24.714;2024-03-02T09:06:14;-24044.41;;;8.14;nan
7105;BME280;3594;42.152;24.714;2024-03-02T09:08:42;-24041.56;;;8.04;nan
7105;BME280;3594;42.152;24.714;2024-03-02T09:11:08;-24051.50;;;8.39;nan
7105;BME280;3594;42.152;24.714;2024-03-02T09:13:34;-24051.50;;;8.39;nan
7105;BME280;3594;42.152;24.714;2024-03-02T09:16:00;-24050.78;;;8.37;nan
7105;BME280;3594;42.152;24.714;2024-03-02T09:18:26;-24062.09;;;8.77;nan
7105;BME280;3594;42.152;24.714;2024-03-02T09:20:51;-24066.50;;;8.93;nan
7105;BME280;3594;42.152;24.714;2024-03-02T09:23:16;-24064.22;;;8.85;nan
7105;BME280;3594;42.152;24.714;2024-03-02T09:25:42;-24060.25;;;8.71;nan
7105;BME280;3594;42.152;24.714;2024-03-02T09:28:07;-24058.72;;;8.65;nan
7105;BME280;3594;42.152;24.714;2024-03-02T09:30:33;-24058.00;;;8.63;nan
7105;BME280;3594;42.152;24.714;2024-03-02T09:32:58;-24069.47;;;9.04;nan
7105;BME280;3594;42.152;24.714;2024-03-02T09:35:24;-24071.31;;;9.10;nan
7105;BME280;3594;42.152;24.714;2024-03-02T09:37:50;-24072.44;;;9.14;nan
7105;BME280;3594;42.152;24.714;2024-03-02T09:40:15;-24080.34;;;9.43;nan
7105;BME280;3594;42.152;24.714;2024-03-02T09:42:41;-24080.63;;;9.44;nan
7105;BME280;3594;42.152;24.714;2024-03-02T09:45:09;-24083.75;;;9.55;nan
7105;BME280;3594;42.152;24.714;2024-03-02T09:47:34;-24085.00;;;9.59;nan
7105;BME280;3594;42.152;24.714;2024-03-02T09:50:00;-24085.44;;;9.61;nan
7105;BME280;3594;42.152;24.714;2024-03-02T09:52:26;-24080.50;;;9.43;nan
7105;BME280;3594;42.152;24.714;2024-03-02T09:54:51;-24088.13;;;9.70;nan
7105;BME280;3594;42.152;24.714;2024-03-02T09:57:16;-24073.53;;;9.25;nan
7105;BME280;3594;42.152;24.714;2024-03-02T09:59:42;-24092.91;;;9.88;nan
7105;BME280;3594;42.152;24.714;2024-03-02T10:02:08;-24072.44;;;9.14;nan
7105;BME280;3594;42.152;24.714;2024-03-02T10:04:33;-24102.25;;;10.21;nan
7105;BME280;3594;42.152;24.714;2024-03-02T10:07:17;-24102.06;;;10.27;nan
7105;BME280;3594;42.152;24.714;2024-03-02T10:09:45;-22837.28;;;10.63;nan
7105;BME280;3594;42.152;24.714;2024-03-02T10:12:11;-18056.06;;;10.84;nan
7105;BME280;3594;42.152;24.714;2024-03-02T10:14:37;-16785.31;;;11.27;nan
7105;BME280;3594;42.152;24.714;2024-03-02T10:17:11;-11027.63;;;11.54;nan
7105;BME280;3594;42.152;24.714;2024-03-02T10:19:37;-5896.94;;;11.71;nan
7105;BME280;3594;42.152;24.714;2024-03-02T10:22:04;-2360.44;;;12.20;nan
7105;BME280;3594;42.152;24.714;2024-03-02T10:24:41;211.34;;;12.03;nan
7105;BME280;3594;42.152;24.714;2024-03-02T10:27:17;5696.00;;;12.53;nan
7105;BME280;3594;42.152;24.714;2024-03-02T10:29:46;7952.31;;;12.43;nan
7105;BME280;3594;42.152;24.714;2024-03-02T10:32:12;7313.88;;;12.73;nan
7105;BME280;3594;42.152;24.714;2024-03-02T10:34:42;7634.41;;;12.63;nan
7105;BME280;3594;42.152;24.714;2024-03-02T10:37:08;4729.63;;;12.59;nan
7105;BME280;3594;42.152;24.714;2024-03-02T10:39:35;4729.25;;;12.57;nan
7105;BME280;3594;42.152;24.714;2024-03-02T10:42:02;6987.63;;;12.58;nan
7105;BME280;3594;42.152;24.714;2024-03-02T10:44:29;6020.50;;;12.62;nan
7105;BME280;3594;42.152;24.714;2024-03-02T10:46:55;12165.88;;;12.93;nan
7105;BME280;3594;42.152;24.714;2024-03-02T10:49:22;15716.75;;;12.70;nan
7105;BME280;3594;42.152;24.714;2024-03-02T10:51:48;12472.47;;;12.39;nan
7105;BME280;3594;42.152;24.714;2024-03-02T10:54:13;11189.41;;;12.71;nan
7105;BME280;3594;42.152;24.714;2024-03-02T10:56:40;12797.91;;;12.47;nan
7105;BME280;3594;42.152;24.714;2024-03-02T11:01:50;11186.84;;;12.62;nan
7105;BME280;3594;42.152;24.714;2024-03-02T11:04:17;7957.72;;;12.65;nan
7105;BME280;3594;42.152;24.714;2024-03-02T11:06:50;7309.88;;;12.56;nan
7105;BME280;3594;42.152;24.714;2024-03-02T11:09:19;8595.66;;;12.34;nan
7105;BME280;3594;42.152;24.714;2024-03-02T11:11:49;7954.28;;;12.51;nan
7105;BME280;3594;42.152;24.714;2024-03-02T11:14:24;6663.03;;;12.49;nan
7105;BME280;3594;42.152;24.714;2024-03-02T11:16:51;9566.09;;;12.42;nan
7105;BME280;3594;42.152;24.714;2024-03-02T11:19:18;9887.59;;;12.37;nan
7105;BME280;3594;42.152;24.714;2024-03-02T11:21:44;12142.72;;;12.18;nan
7105;BME280;3594;42.152;24.714;2024-03-02T11:26:52;12476.31;;;12.52;nan
7105;BME280;3594;42.152;24.714;2024-03-02T11:32:22;13776.44;;;12.72;nan
7105;BME280;3594;42.152;24.714;2024-03-02T11:34:51;13451.66;;;12.68;nan
7105;BME280;3594;42.152;24.714;2024-03-02T11:37:18;13448.97;;;12.60;nan
7105;BME280;3594;42.152;24.714;2024-03-02T11:39:44;20904.34;;;12.82;nan
7105;BME280;3594;42.152;24.714;2024-03-02T11:42:11;17982.72;;;12.69;nan
7105;BME280;3594;42.152;24.714;2024-03-02T11:44:39;15066.50;;;12.61;nan
7105;BME280;3594;42.152;24.714;2024-03-02T11:47:07;12803.13;;;12.63;nan
7105;BME280;3594;42.152;24.714;2024-03-02T11:49:40;13776.59;;;12.73;nan
7105;BME280;3594;42.152;24.714;2024-03-02T11:52:09;15710.22;;;12.52;nan
7105;BME280;3594;42.152;24.714;2024-03-02T11:54:37;12148.56;;;12.37;nan
7105;BME280;3594;42.152;24.714;2024-03-02T11:57:06;8589.53;;;12.10;nan
7105;BME280;3594;42.152;24.714;2024-03-02T11:59:32;8909.16;;;11.99;nan
7105;BME280;3594;42.152;24.714;2024-03-02T12:01:58;8269.19;;;12.19;nan
7105;BME280;3594;42.152;24.714;2024-03-02T12:04:24;6976.03;;;12.07;nan
7105;BME280;3594;42.152;24.714;2024-03-02T12:06:59;5047.97;;;12.37;nan
7105;BME280;3594;42.152;24.714;2024-03-02T12:09:28;3114.56;;;12.40;nan
7105;BME280;3594;42.152;24.714;2024-03-02T12:12:07;6660.88;;;12.39;nan
7105;BME280;3594;42.152;24.714;2024-03-02T12:14:35;6658.44;;;12.28;nan
7105;BME280;3594;42.152;24.714;2024-03-02T12:17:01;3430.66;;;12.04;nan
7105;BME280;3594;42.152;24.714;2024-03-02T12:19:28;1820.75;;;12.05;nan
7105;BME280;3594;42.152;24.714;2024-03-02T12:21:58;3751.53;;;11.97;nan
7105;BME280;3594;42.152;24.714;2024-03-02T12:24:27;2464.13;;;12.01;nan
7105;BME280;3594;42.152;24.714;2024-03-02T12:26:54;4081.06;;;12.38;nan
7105;BME280;3594;42.152;24.714;2024-03-02T12:29:20;5370.50;;;12.38;nan
7105;BME280;3594;42.152;24.714;2024-03-02T12:31:50;3433.91;;;12.23;nan
7105;BME280;3594;42.152;24.714;2024-03-02T12:34:17;6979.47;;;12.22;nan
7105;BME280;3594;42.152;24.714;2024-03-02T12:36:42;2787.78;;;12.12;nan
7105;BME280;3594;42.152;24.714;2024-03-02T12:39:08;2145.31;;;12.22;nan
7105;BME280;3594;42.152;24.714;2024-03-02T12:41:38;1501.13;;;12.21;nan
7105;BME280;3594;42.152;24.714;2024-03-02T12:44:06;1821.41;;;12.09;nan
7105;BME280;3594;42.152;24.714;2024-03-02T12:46:32;4078.25;;;12.23;nan
7105;BME280;3594;42.152;24.714;2024-03-02T12:48:58;3111.75;;;12.23;nan
7105;BME280;3594;42.152;24.714;2024-03-02T12:51:30;2469.69;;;12.37;nan
7105;BME280;3594;42.152;24.714;2024-03-02T12:53:57;7947.53;;;12.23;nan
7105;BME280;3594;42.152;24.714;2024-03-02T12:56:24;6010.25;;;12.13;nan
7105;BME280;3594;42.152;24.714;2024-03-02T12:58:59;6657.63;;;12.25;nan
7105;BME280;3594;42.152;24.714;2024-03-02T13:01:25;4395.09;;;11.93;nan
7105;BME280;3594;42.152;24.714;2024-03-02T13:03:55;2139.63;;;11.84;nan
7105;BME280;3594;42.152;24.714;2024-03-02T13:06:21;1171.41;;;11.63;nan
7105;BME280;3594;42.152;24.714;2024-03-02T13:08:47;-2043.56;;;11.61;nan
7105;BME280;3594;42.152;24.714;2024-03-02T13:11:14;-1402.72;;;11.40;nan
7105;BME280;3594;42.152;24.714;2024-03-02T13:13:41;-1081.66;;;11.38;nan
7105;BME280;3594;42.152;24.714;2024-03-02T13:16:09;-2367.19;;;11.30;nan
7105;BME280;3594;42.152;24.714;2024-03-02T13:18:38;-3973.44;;;11.08;nan
7105;BME280;3594;42.152;24.714;2024-03-02T13:21:03;-3652.22;;;11.15;nan
7105;BME280;3594;42.152;24.714;2024-03-02T13:23:29;-5577.50;;;10.99;nan
7105;BME280;3594;42.152;24.714;2024-03-02T13:25:57;-7180.41;;;11.14;nan
7105;BME280;3594;42.152;24.714;2024-03-02T13:28:24;-7180.28;;;10.85;nan
7105;BME280;3594;42.152;24.714;2024-03-02T13:30:49;-5577.00;;;11.22;nan
7105;BME280;3594;42.152;24.714;2024-03-02T13:33:14;-6539.16;;;11.22;nan
7105;BME280;3594;42.152;24.714;2024-03-02T13:35:40;-6218.47;;;11.22;nan
7105;BME280;3594;42.152;24.714;2024-03-02T13:38:05;-5897.91;;;11.13;nan